sensor_id;sensor_type;location;lat;lon;timestamp;P1;durP1;ratioP1;P2;durP2;ratioP2
8131;SDS011;4107;49.212;9.198;2022-08-25T00:01:35;5.10;;;4.03;;
8131;SDS011;4107;49.212;9.198;2022-08-25T00:04:04;4.20;;;3.80;;
8131;SDS011;4107;49.212;9.198;2022-08-25T00:06:32;4.73;;;4.10;;
8131;SDS011;4107;49.212;9.198;2022-08-25T00:08:58;7.17;;;4.20;;
8131;SDS011;4107;49.212;9.198;2022-08-25T00:11:25;5.03;;;4.07;;
8131;SDS011;4107;49.212;9.198;2022-08-25T00:13:55;5.67;;;4.00;;
8131;SDS011;4107;49.212;9.198;2022-08-25T00:16:24;4.77;;;4.37;;
8131;SDS011;4107;49.212;9.198;2022-08-25T00:18:51;4.57;;;4.20;;
8131;SDS011;4107;49.212;9.198;2022-08-25T00:21:20;5.10;;;4.20;;
8131;SDS011;4107;49.212;9.198;2022-08-25T00:23:47;4.87;;;4.17;;
8131;SDS011;4107;49.212;9.198;2022-08-25T00:26:14;6.60;;;4.30;;
8131;SDS011;4107;49.212;9.198;2022-08-25T00:28:41;5.47;;;4.97;;
8131;SDS011;4107;49.212;9.198;2022-08-25T00:31:10;5.13;;;4.50;;
8131;SDS011;4107;49.212;9.198;2022-08-25T00:33:37;6.57;;;4.50;;
8131;SDS011;4107;49.212;9.198;2022-08-25T00:36:03;7.20;;;4.67;;
8131;SDS011;4107;49.212;9.198;2022-08-25T00:38:29;7.17;;;4.80;;
8131;SDS011;4107;49.212;9.198;2022-08-25T00:40:55;6.03;;;4.80;;
8131;SDS011;4107;49.212;9.198;2022-08-25T00:43:50;4.80;;;4.30;;
8131;SDS011;4107;49.212;9.198;2022-08-25T00:46:18;5.07;;;4.67;;
8131;SDS011;4107;49.212;9.198;2022-08-25T00:48:46;7.03;;;4.47;;
8131;SDS011;4107;49.212;9.198;2022-08-25T00:53:59;4.40;;;4.00;;
8131;SDS011;4107;49.212;9.198;2022-08-25T00:56:26;5.40;;;4.90;;
8131;SDS011;4107;49.212;9.198;2022-08-25T00:58:54;5.03;;;4.53;;
8131;SDS011;4107;49.212;9.198;2022-08-25T01:01:20;4.60;;;4.10;;
8131;SDS011;4107;49.212;9.198;2022-08-25T01:03:46;5.53;;;5.00;;
8131;SDS011;4107;49.212;9.198;2022-08-25T01:06:11;4.87;;;4.23;;
8131;SDS011;4107;49.212;9.198;2022-08-25T01:08:37;5.37;;;4.57;;
8131;SDS011;4107;49.212;9.198;2022-08-25T01:11:05;5.80;;;4.20;;
8131;SDS011;4107;49.212;9.198;2022-08-25T01:13:34;4.77;;;4.37;;
8131;SDS011;4107;49.212;9.198;2022-08-25T01:16:12;5.17;;;4.33;;
8131;SDS011;4107;49.212;9.198;2022-08-25T01:18:49;5.27;;;4.30;;
8131;SDS011;4107;49.212;9.198;2022-08-25T01:21:18;6.77;;;4.80;;
8131;SDS011;4107;49.212;9.198;2022-08-25T01:23:45;5.83;;;5.23;;
8131;SDS011;4107;49.212;9.198;2022-08-25T01:26:17;7.43;;;4.90;;
8131;SDS011;4107;49.212;9.198;2022-08-25T01:28:46;5.27;;;4.40;;
8131;SDS011;4107;49.212;9.198;2022-08-25T01:31:31;5.80;;;4.97;;
8131;SDS011;4107;49.212;9.198;2022-08-25T01:33:58;6.50;;;5.23;;
8131;SDS011;4107;49.212;9.198;2022-08-25T01:36:25;6.17;;;5.43;;
8131;SDS011;4107;49.212;9.198;2022-08-25T01:38:53;5.47;;;4.83;;
8131;SDS011;4107;49.212;9.198;2022-08-25T01:44:18;6.23;;;4.83;;
8131;SDS011;4107;49.212;9.198;2022-08-25T01:46:44;5.53;;;4.97;;
8131;SDS011;4107;49.212;9.198;2022-08-25T01:49:09;6.67;;;5.53;;
8131;SDS011;4107;49.212;9.198;2022-08-25T01:51:43;5.40;;;4.90;;
8131;SDS011;4107;49.212;9.198;2022-08-25T01:54:15;5.97;;;5.47;;
8131;SDS011;4107;49.212;9.198;2022-08-25T01:56:41;7.57;;;5.13;;
8131;SDS011;4107;49.212;9.198;2022-08-25T01:59:07;6.47;;;5.77;;
8131;SDS011;4107;49.212;9.198;2022-08-25T02:01:33;6.00;;;5.40;;
8131;SDS011;4107;49.212;9.198;2022-08-25T02:03:59;6.43;;;5.80;;
8131;SDS011;4107;49.212;9.198;2022-08-25T02:06:26;6.50;;;5.87;;
8131;SDS011;4107;49.212;9.198;2022-08-25T02:08:54;6.47;;;5.63;;
8131;SDS011;4107;49.212;9.198;2022-08-25T02:11:23;6.70;;;5.53;;
8131;SDS011;4107;49.212;9.198;2022-08-25T02:13:49;5.90;;;5.30;;
8131;SDS011;4107;49.212;9.198;2022-08-25T02:16:26;7.10;;;6.10;;
8131;SDS011;4107;49.212;9.198;2022-08-25T02:18:55;6.93;;;5.37;;
8131;SDS011;4107;49.212;9.198;2022-08-25T02:21:23;6.40;;;5.80;;
8131;SDS011;4107;49.212;9.198;2022-08-25T02:23:49;7.33;;;6.03;;
8131;SDS011;4107;49.212;9.198;2022-08-25T02:26:15;6.37;;;5.73;;
8131;SDS011;4107;49.212;9.198;2022-08-25T02:28:43;6.47;;;5.30;;
8131;SDS011;4107;49.212;9.198;2022-08-25T02:31:13;7.23;;;6.30;;
8131;SDS011;4107;49.212;9.198;2022-08-25T02:33:39;8.43;;;5.57;;
8131;SDS011;4107;49.212;9.198;2022-08-25T02:36:05;6.83;;;6.03;;
8131;SDS011;4107;49.212;9.198;2022-08-25T02:38:31;7.60;;;5.63;;
8131;SDS011;4107;49.212;9.198;2022-08-25T02:40:58;6.33;;;5.67;;
8131;SDS011;4107;49.212;9.198;2022-08-25T02:43:24;6.80;;;5.53;;
8131;SDS011;4107;49.212;9.198;2022-08-25T02:45:51;6.30;;;5.70;;
8131;SDS011;4107;49.212;9.198;2022-08-25T02:48:18;6.47;;;5.70;;
8131;SDS011;4107;49.212;9.198;2022-08-25T02:50:47;8.27;;;6.07;;
8131;SDS011;4107;49.212;9.198;2022-08-25T02:53:16;6.57;;;5.80;;
8131;SDS011;4107;49.212;9.198;2022-08-25T02:55:42;6.87;;;6.23;;
8131;SDS011;4107;49.212;9.198;2022-08-25T02:58:08;7.07;;;5.80;;
8131;SDS011;4107;49.212;9.198;2022-08-25T03:00:34;6.47;;;5.87;;
8131;SDS011;4107;49.212;9.198;2022-08-25T03:03:00;6.83;;;6.23;;
8131;SDS011;4107;49.212;9.198;2022-08-25T03:05:26;6.20;;;5.60;;
8131;SDS011;4107;49.212;9.198;2022-08-25T03:07:51;6.53;;;5.80;;
8131;SDS011;4107;49.212;9.198;2022-08-25T03:10:17;8.60;;;6.20;;
8131;SDS011;4107;49.212;9.198;2022-08-25T03:12:44;7.20;;;6.50;;
8131;SDS011;4107;49.212;9.198;2022-08-25T03:15:11;9.93;;;6.57;;
8131;SDS011;4107;49.212;9.198;2022-08-25T03:17:40;6.93;;;6.13;;
8131;SDS011;4107;49.212;9.198;2022-08-25T03:20:09;6.50;;;5.90;;
8131;SDS011;4107;49.212;9.198;2022-08-25T03:22:35;6.27;;;5.67;;
8131;SDS011;4107;49.212;9.198;2022-08-25T03:25:01;8.33;;;6.77;;
8131;SDS011;4107;49.212;9.198;2022-08-25T03:27:47;7.03;;;6.33;;
8131;SDS011;4107;49.212;9.198;2022-08-25T03:30:13;8.27;;;6.43;;
8131;SDS011;4107;49.212;9.198;2022-08-25T03:32:40;7.27;;;6.57;;
8131;SDS011;4107;49.212;9.198;2022-08-25T03:35:06;7.27;;;6.63;;
8131;SDS011;4107;49.212;9.198;2022-08-25T03:37:32;7.27;;;6.57;;
8131;SDS011;4107;49.212;9.198;2022-08-25T03:39:59;7.00;;;6.40;;
8131;SDS011;4107;49.212;9.198;2022-08-25T03:42:26;7.50;;;6.70;;
8131;SDS011;4107;49.212;9.198;2022-08-25T03:44:52;7.87;;;6.57;;
8131;SDS011;4107;49.212;9.198;2022-08-25T03:47:18;6.60;;;6.00;;
8131;SDS011;4107;49.212;9.198;2022-08-25T03:49:44;7.17;;;6.47;;
8131;SDS011;4107;49.212;9.198;2022-08-25T03:52:10;7.97;;;6.80;;
8131;SDS011;4107;49.212;9.198;2022-08-25T03:54:35;6.93;;;6.00;;
8131;SDS011;4107;49.212;9.198;2022-08-25T03:57:01;7.33;;;6.43;;
8131;SDS011;4107;49.212;9.198;2022-08-25T03:59:27;8.10;;;6.80;;
8131;SDS011;4107;49.212;9.198;2022-08-25T04:01:53;6.87;;;6.27;;
8131;SDS011;4107;49.212;9.198;2022-08-25T04:04:19;10.07;;;6.43;;
8131;SDS011;4107;49.212;9.198;2022-08-25T04:06:44;8.43;;;6.20;;
8131;SDS011;4107;49.212;9.198;2022-08-25T04:09:11;7.00;;;6.30;;
8131;SDS011;4107;49.212;9.198;2022-08-25T04:11:37;7.13;;;6.33;;
8131;SDS011;4107;49.212;9.198;2022-08-25T04:14:03;7.77;;;6.87;;
8131;SDS011;4107;49.212;9.198;2022-08-25T04:16:31;11.33;;;7.17;;
8131;SDS011;4107;49.212;9.198;2022-08-25T04:18:59;9.73;;;7.07;;
8131;SDS011;4107;49.212;9.198;2022-08-25T04:21:26;10.97;;;6.90;;
8131;SDS011;4107;49.212;9.198;2022-08-25T04:23:53;7.77;;;7.07;;
8131;SDS011;4107;49.212;9.198;2022-08-25T04:26:21;8.37;;;7.50;;
8131;SDS011;4107;49.212;9.198;2022-08-25T04:28:58;8.03;;;7.23;;
8131;SDS011;4107;49.212;9.198;2022-08-25T04:31:26;7.80;;;7.00;;
8131;SDS011;4107;49.212;9.198;2022-08-25T04:33:52;8.60;;;7.03;;
8131;SDS011;4107;49.212;9.198;2022-08-25T04:36:18;11.20;;;6.97;;
8131;SDS011;4107;49.212;9.198;2022-08-25T04:38:45;8.13;;;7.33;;
8131;SDS011;4107;49.212;9.198;2022-08-25T04:41:14;8.07;;;7.17;;
8131;SDS011;4107;49.212;9.198;2022-08-25T04:43:41;8.20;;;7.40;;
8131;SDS011;4107;49.212;9.198;2022-08-25T04:46:09;9.60;;;7.17;;
8131;SDS011;4107;49.212;9.198;2022-08-25T04:48:37;11.00;;;7.40;;
8131;SDS011;4107;49.212;9.198;2022-08-25T04:51:07;10.67;;;7.93;;
8131;SDS011;4107;49.212;9.198;2022-08-25T04:53:36;7.83;;;7.03;;
8131;SDS011;4107;49.212;9.198;2022-08-25T04:56:09;8.33;;;7.13;;
8131;SDS011;4107;49.212;9.198;2022-08-25T04:58:39;7.47;;;6.77;;
8131;SDS011;4107;49.212;9.198;2022-08-25T05:01:07;7.90;;;6.97;;
8131;SDS011;4107;49.212;9.198;2022-08-25T05:03:38;8.20;;;7.40;;
8131;SDS011;4107;49.212;9.198;2022-08-25T05:06:04;8.13;;;7.33;;
8131;SDS011;4107;49.212;9.198;2022-08-25T05:08:30;8.07;;;6.90;;
8131;SDS011;4107;49.212;9.198;2022-08-25T05:10:56;13.57;;;7.83;;
8131;SDS011;4107;49.212;9.198;2022-08-25T05:13:23;8.27;;;7.47;;
8131;SDS011;4107;49.212;9.198;2022-08-25T05:15:53;8.80;;;7.90;;
8131;SDS011;4107;49.212;9.198;2022-08-25T05:18:23;8.27;;;7.47;;
8131;SDS011;4107;49.212;9.198;2022-08-25T05:20:51;11.00;;;7.43;;
8131;SDS011;4107;49.212;9.198;2022-08-25T05:23:20;7.70;;;6.90;;
8131;SDS011;4107;49.212;9.198;2022-08-25T05:25:47;8.60;;;7.43;;
8131;SDS011;4107;49.212;9.198;2022-08-25T05:28:14;8.27;;;7.30;;
8131;SDS011;4107;49.212;9.198;2022-08-25T05:30:41;8.77;;;7.60;;
8131;SDS011;4107;49.212;9.198;2022-08-25T05:33:07;10.17;;;8.30;;
8131;SDS011;4107;49.212;9.198;2022-08-25T05:35:34;9.10;;;7.80;;
8131;SDS011;4107;49.212;9.198;2022-08-25T05:38:00;8.83;;;7.93;;
8131;SDS011;4107;49.212;9.198;2022-08-25T05:40:28;9.57;;;8.23;;
8131;SDS011;4107;49.212;9.198;2022-08-25T05:42:54;10.10;;;7.60;;
8131;SDS011;4107;49.212;9.198;2022-08-25T05:45:20;9.27;;;7.50;;
8131;SDS011;4107;49.212;9.198;2022-08-25T05:47:45;9.20;;;7.83;;
8131;SDS011;4107;49.212;9.198;2022-08-25T05:50:11;9.53;;;7.97;;
8131;SDS011;4107;49.212;9.198;2022-08-25T05:52:36;9.67;;;7.73;;
8131;SDS011;4107;49.212;9.198;2022-08-25T05:55:03;9.63;;;8.13;;
8131;SDS011;4107;49.212;9.198;2022-08-25T05:57:29;10.03;;;7.77;;
8131;SDS011;4107;49.212;9.198;2022-08-25T05:59:56;9.20;;;7.80;;
8131;SDS011;4107;49.212;9.198;2022-08-25T06:02:21;10.07;;;7.77;;
8131;SDS011;4107;49.212;9.198;2022-08-25T06:05:06;8.93;;;7.70;;
8131;SDS011;4107;49.212;9.198;2022-08-25T06:07:33;9.97;;;8.00;;
8131;SDS011;4107;49.212;9.198;2022-08-25T06:10:00;9.77;;;8.77;;
8131;SDS011;4107;49.212;9.198;2022-08-25T06:12:31;10.93;;;8.30;;
8131;SDS011;4107;49.212;9.198;2022-08-25T06:14:57;12.10;;;8.13;;
8131;SDS011;4107;49.212;9.198;2022-08-25T06:17:23;9.10;;;8.10;;
8131;SDS011;4107;49.212;9.198;2022-08-25T06:19:48;12.13;;;8.07;;
8131;SDS011;4107;49.212;9.198;2022-08-25T06:22:14;11.77;;;7.80;;
8131;SDS011;4107;49.212;9.198;2022-08-25T06:24:39;9.47;;;7.50;;
8131;SDS011;4107;49.212;9.198;2022-08-25T06:27:05;10.00;;;8.10;;
8131;SDS011;4107;49.212;9.198;2022-08-25T06:29:30;9.73;;;7.70;;
8131;SDS011;4107;49.212;9.198;2022-08-25T06:31:56;8.20;;;7.40;;
8131;SDS011;4107;49.212;9.198;2022-08-25T06:34:22;12.10;;;7.77;;
8131;SDS011;4107;49.212;9.198;2022-08-25T06:36:48;11.40;;;7.70;;
8131;SDS011;4107;49.212;9.198;2022-08-25T06:39:14;8.63;;;7.83;;
8131;SDS011;4107;49.212;9.198;2022-08-25T06:41:40;8.90;;;7.60;;
8131;SDS011;4107;49.212;9.198;2022-08-25T06:44:06;9.93;;;7.70;;
8131;SDS011;4107;49.212;9.198;2022-08-25T06:46:32;7.63;;;6.90;;
8131;SDS011;4107;49.212;9.198;2022-08-25T06:48:58;7.93;;;7.03;;
8131;SDS011;4107;49.212;9.198;2022-08-25T06:51:25;8.43;;;7.57;;
8131;SDS011;4107;49.212;9.198;2022-08-25T06:53:51;10.37;;;7.40;;
8131;SDS011;4107;49.212;9.198;2022-08-25T06:56:18;9.93;;;7.83;;
8131;SDS011;4107;49.212;9.198;2022-08-25T06:58:45;8.00;;;7.13;;
8131;SDS011;4107;49.212;9.198;2022-08-25T07:03:39;8.03;;;7.07;;
8131;SDS011;4107;49.212;9.198;2022-08-25T07:06:05;8.27;;;7.43;;
8131;SDS011;4107;49.212;9.198;2022-08-25T07:08:31;8.93;;;7.50;;
8131;SDS011;4107;49.212;9.198;2022-08-25T07:11:04;7.30;;;6.60;;
8131;SDS011;4107;49.212;9.198;2022-08-25T07:13:30;8.95;;;6.80;;
8131;SDS011;4107;49.212;9.198;2022-08-25T07:15:56;7.45;;;6.57;;
8131;SDS011;4107;49.212;9.198;2022-08-25T07:18:22;9.30;;;6.95;;
8131;SDS011;4107;49.212;9.198;2022-08-25T07:20:48;9.43;;;6.65;;
8131;SDS011;4107;49.212;9.198;2022-08-25T07:23:16;7.47;;;6.57;;
8131;SDS011;4107;49.212;9.198;2022-08-25T07:25:42;7.45;;;6.75;;
8131;SDS011;4107;49.212;9.198;2022-08-25T07:28:07;7.00;;;6.30;;
8131;SDS011;4107;49.212;9.198;2022-08-25T07:30:33;7.05;;;6.38;;
8131;SDS011;4107;49.212;9.198;2022-08-25T07:32:59;7.03;;;6.32;;
8131;SDS011;4107;49.212;9.198;2022-08-25T07:35:24;6.60;;;5.93;;
8131;SDS011;4107;49.212;9.198;2022-08-25T07:37:52;7.30;;;6.47;;
8131;SDS011;4107;49.212;9.198;2022-08-25T07:40:23;7.18;;;6.05;;
8131;SDS011;4107;49.212;9.198;2022-08-25T07:43:01;6.30;;;5.70;;
8131;SDS011;4107;49.212;9.198;2022-08-25T07:45:29;6.55;;;5.95;;
8131;SDS011;4107;49.212;9.198;2022-08-25T07:47:57;7.03;;;6.32;;
8131;SDS011;4107;49.212;9.198;2022-08-25T07:50:25;6.10;;;5.60;;
8131;SDS011;4107;49.212;9.198;2022-08-25T07:52:51;10.15;;;5.88;;
8131;SDS011;4107;49.212;9.198;2022-08-25T07:55:17;9.35;;;5.90;;
8131;SDS011;4107;49.212;9.198;2022-08-25T07:57:43;6.35;;;5.75;;
8131;SDS011;4107;49.212;9.198;2022-08-25T08:00:09;7.28;;;6.22;;
8131;SDS011;4107;49.212;9.198;2022-08-25T08:02:38;7.03;;;6.32;;
8131;SDS011;4107;49.212;9.198;2022-08-25T08:05:04;6.28;;;5.65;;
8131;SDS011;4107;49.212;9.198;2022-08-25T08:07:32;5.93;;;5.32;;
8131;SDS011;4107;49.212;9.198;2022-08-25T08:09:58;6.28;;;5.68;;
8131;SDS011;4107;49.212;9.198;2022-08-25T08:12:24;6.30;;;5.70;;
8131;SDS011;4107;49.212;9.198;2022-08-25T08:14:51;8.73;;;5.72;;
8131;SDS011;4107;49.212;9.198;2022-08-25T08:17:18;6.00;;;5.40;;
8131;SDS011;4107;49.212;9.198;2022-08-25T08:19:44;7.25;;;5.30;;
8131;SDS011;4107;49.212;9.198;2022-08-25T08:22:10;5.80;;;5.30;;
8131;SDS011;4107;49.212;9.198;2022-08-25T08:24:38;6.18;;;5.57;;
8131;SDS011;4107;49.212;9.198;2022-08-25T08:27:05;5.30;;;4.88;;
8131;SDS011;4107;49.212;9.198;2022-08-25T08:29:32;5.93;;;5.20;;
8131;SDS011;4107;49.212;9.198;2022-08-25T08:32:02;5.95;;;5.28;;
8131;SDS011;4107;49.212;9.198;2022-08-25T08:34:30;5.57;;;5.07;;
8131;SDS011;4107;49.212;9.198;2022-08-25T08:36:56;6.10;;;5.50;;
8131;SDS011;4107;49.212;9.198;2022-08-25T08:39:22;6.55;;;4.97;;
8131;SDS011;4107;49.212;9.198;2022-08-25T08:48:21;5.63;;;5.10;;
8131;SDS011;4107;49.212;9.198;2022-08-25T08:56:28;7.18;;;4.85;;
8131;SDS011;4107;49.212;9.198;2022-08-25T08:59:05;5.53;;;5.03;;
8131;SDS011;4107;49.212;9.198;2022-08-25T09:01:48;5.03;;;4.60;;
8131;SDS011;4107;49.212;9.198;2022-08-25T09:04:28;5.60;;;5.10;;
8131;SDS011;4107;49.212;9.198;2022-08-25T09:06:57;4.88;;;4.43;;
8131;SDS011;4107;49.212;9.198;2022-08-25T09:09:26;6.18;;;4.85;;
8131;SDS011;4107;49.212;9.198;2022-08-25T09:22:21;5.13;;;4.50;;
8131;SDS011;4107;49.212;9.198;2022-08-25T09:30:46;5.20;;;4.80;;
8131;SDS011;4107;49.212;9.198;2022-08-25T09:33:25;5.85;;;4.93;;
8131;SDS011;4107;49.212;9.198;2022-08-25T09:35:53;6.25;;;4.70;;
8131;SDS011;4107;49.212;9.198;2022-08-25T09:38:20;5.43;;;4.90;;
8131;SDS011;4107;49.212;9.198;2022-08-25T09:40:49;4.95;;;4.55;;
8131;SDS011;4107;49.212;9.198;2022-08-25T09:43:20;6.18;;;4.45;;
8131;SDS011;4107;49.212;9.198;2022-08-25T09:45:47;4.82;;;4.43;;
8131;SDS011;4107;49.212;9.198;2022-08-25T09:51:25;5.10;;;4.70;;
8131;SDS011;4107;49.212;9.198;2022-08-25T09:53:59;4.75;;;4.03;;
8131;SDS011;4107;49.212;9.198;2022-08-25T09:56:29;4.88;;;4.38;;
8131;SDS011;4107;49.212;9.198;2022-08-25T10:01:52;5.88;;;4.53;;
8131;SDS011;4107;49.212;9.198;2022-08-25T10:04:26;5.75;;;4.28;;
8131;SDS011;4107;49.212;9.198;2022-08-25T10:06:56;4.68;;;4.28;;
8131;SDS011;4107;49.212;9.198;2022-08-25T10:09:34;5.43;;;4.90;;
8131;SDS011;4107;49.212;9.198;2022-08-25T10:12:13;4.90;;;4.40;;
8131;SDS011;4107;49.212;9.198;2022-08-25T10:14:41;5.13;;;3.85;;
8131;SDS011;4107;49.212;9.198;2022-08-25T10:19:39;5.90;;;3.90;;
8131;SDS011;4107;49.212;9.198;2022-08-25T10:22:09;5.45;;;3.92;;
8131;SDS011;4107;49.212;9.198;2022-08-25T10:24:37;4.95;;;4.45;;
8131;SDS011;4107;49.212;9.198;2022-08-25T10:27:14;4.95;;;4.13;;
8131;SDS011;4107;49.212;9.198;2022-08-25T10:29:49;4.57;;;4.18;;
8131;SDS011;4107;49.212;9.198;2022-08-25T10:32:28;4.43;;;4.03;;
8131;SDS011;4107;49.212;9.198;2022-08-25T10:34:57;5.90;;;4.03;;
8131;SDS011;4107;49.212;9.198;2022-08-25T10:37:41;5.00;;;4.53;;
8131;SDS011;4107;49.212;9.198;2022-08-25T10:43:04;4.63;;;4.22;;
8131;SDS011;4107;49.212;9.198;2022-08-25T10:48:42;4.38;;;3.97;;
8131;SDS011;4107;49.212;9.198;2022-08-25T10:57:06;4.25;;;3.72;;
8131;SDS011;4107;49.212;9.198;2022-08-25T10:59:47;3.97;;;3.67;;
8131;SDS011;4107;49.212;9.198;2022-08-25T11:08:05;3.90;;;3.55;;
8131;SDS011;4107;49.212;9.198;2022-08-25T11:10:58;4.10;;;3.75;;
8131;SDS011;4107;49.212;9.198;2022-08-25T11:13:32;4.18;;;3.80;;
8131;SDS011;4107;49.212;9.198;2022-08-25T11:16:05;4.13;;;3.83;;
8131;SDS011;4107;49.212;9.198;2022-08-25T11:18:38;5.50;;;3.80;;
8131;SDS011;4107;49.212;9.198;2022-08-25T11:21:18;3.80;;;3.50;;
8131;SDS011;4107;49.212;9.198;2022-08-25T11:23:54;6.72;;;4.20;;
8131;SDS011;4107;49.212;9.198;2022-08-25T11:26:26;5.13;;;3.90;;
8131;SDS011;4107;49.212;9.198;2022-08-25T11:29:02;5.13;;;4.30;;
8131;SDS011;4107;49.212;9.198;2022-08-25T11:31:50;3.92;;;3.50;;
8131;SDS011;4107;49.212;9.198;2022-08-25T11:34:17;3.83;;;3.42;;
8131;SDS011;4107;49.212;9.198;2022-08-25T11:37:00;4.35;;;3.45;;
8131;SDS011;4107;49.212;9.198;2022-08-25T11:44:48;4.13;;;3.75;;
8131;SDS011;4107;49.212;9.198;2022-08-25T11:50:28;5.30;;;4.50;;
8131;SDS011;4107;49.212;9.198;2022-08-25T11:55:45;4.22;;;3.92;;
8131;SDS011;4107;49.212;9.198;2022-08-25T12:00:52;4.00;;;3.70;;
8131;SDS011;4107;49.212;9.198;2022-08-25T12:37:52;3.85;;;3.40;;
8131;SDS011;4107;49.212;9.198;2022-08-25T12:40:34;3.55;;;3.20;;
8131;SDS011;4107;49.212;9.198;2022-08-25T12:43:10;3.90;;;3.30;;
8131;SDS011;4107;49.212;9.198;2022-08-25T12:45:47;3.95;;;3.20;;
8131;SDS011;4107;49.212;9.198;2022-08-25T12:50:56;4.10;;;3.58;;
8131;SDS011;4107;49.212;9.198;2022-08-25T12:56:07;4.30;;;3.00;;
8131;SDS011;4107;49.212;9.198;2022-08-25T13:01:31;3.25;;;2.95;;
8131;SDS011;4107;49.212;9.198;2022-08-25T13:12:53;4.57;;;3.33;;
8131;SDS011;4107;49.212;9.198;2022-08-25T13:15:39;4.40;;;3.53;;
8131;SDS011;4107;49.212;9.198;2022-08-25T13:18:25;5.13;;;3.30;;
8131;SDS011;4107;49.212;9.198;2022-08-25T13:23:37;3.60;;;3.30;;
8131;SDS011;4107;49.212;9.198;2022-08-25T13:26:05;3.40;;;3.10;;
8131;SDS011;4107;49.212;9.198;2022-08-25T13:28:34;3.55;;;3.28;;
8131;SDS011;4107;49.212;9.198;2022-08-25T13:31:05;3.90;;;3.30;;
8131;SDS011;4107;49.212;9.198;2022-08-25T13:33:52;3.65;;;3.17;;
8131;SDS011;4107;49.212;9.198;2022-08-25T13:36:19;3.85;;;3.50;;
8131;SDS011;4107;49.212;9.198;2022-08-25T13:39:11;3.97;;;3.58;;
8131;SDS011;4107;49.212;9.198;2022-08-25T13:41:45;3.75;;;3.15;;
8131;SDS011;4107;49.212;9.198;2022-08-25T13:44:14;3.10;;;2.90;;
8131;SDS011;4107;49.212;9.198;2022-08-25T13:46:41;3.90;;;3.50;;
8131;SDS011;4107;49.212;9.198;2022-08-25T13:49:08;3.67;;;3.10;;
8131;SDS011;4107;49.212;9.198;2022-08-25T13:51:34;4.55;;;3.30;;
8131;SDS011;4107;49.212;9.198;2022-08-25T13:54:03;3.70;;;3.40;;
8131;SDS011;4107;49.212;9.198;2022-08-25T13:56:36;3.58;;;3.25;;
8131;SDS011;4107;49.212;9.198;2022-08-25T13:59:06;4.13;;;2.88;;
8131;SDS011;4107;49.212;9.198;2022-08-25T14:01:46;4.07;;;3.10;;
8131;SDS011;4107;49.212;9.198;2022-08-25T14:06:46;3.70;;;3.13;;
8131;SDS011;4107;49.212;9.198;2022-08-25T14:09:15;3.40;;;3.10;;
8131;SDS011;4107;49.212;9.198;2022-08-25T14:11:46;3.60;;;3.10;;
8131;SDS011;4107;49.212;9.198;2022-08-25T14:16:48;3.42;;;3.13;;
8131;SDS011;4107;49.212;9.198;2022-08-25T14:19:23;4.90;;;3.15;;
8131;SDS011;4107;49.212;9.198;2022-08-25T14:21:49;4.45;;;3.13;;
8131;SDS011;4107;49.212;9.198;2022-08-25T14:24:17;4.10;;;3.58;;
8131;SDS011;4107;49.212;9.198;2022-08-25T14:26:45;4.10;;;3.10;;
8131;SDS011;4107;49.212;9.198;2022-08-25T14:29:11;3.70;;;3.30;;
8131;SDS011;4107;49.212;9.198;2022-08-25T14:31:39;3.22;;;3.03;;
8131;SDS011;4107;49.212;9.198;2022-08-25T14:34:21;4.03;;;3.10;;
8131;SDS011;4107;49.212;9.198;2022-08-25T14:36:49;3.70;;;3.40;;
8131;SDS011;4107;49.212;9.198;2022-08-25T14:39:15;3.72;;;2.97;;
8131;SDS011;4107;49.212;9.198;2022-08-25T14:41:41;4.43;;;3.42;;
8131;SDS011;4107;49.212;9.198;2022-08-25T14:44:10;3.33;;;3.03;;
8131;SDS011;4107;49.212;9.198;2022-08-25T14:46:39;3.85;;;3.10;;
8131;SDS011;4107;49.212;9.198;2022-08-25T14:49:09;3.20;;;2.95;;
8131;SDS011;4107;49.212;9.198;2022-08-25T14:51:40;4.85;;;3.30;;
8131;SDS011;4107;49.212;9.198;2022-08-25T14:54:10;3.63;;;3.15;;
8131;SDS011;4107;49.212;9.198;2022-08-25T14:56:38;3.63;;;3.33;;
8131;SDS011;4107;49.212;9.198;2022-08-25T14:59:05;4.03;;;3.42;;
8131;SDS011;4107;49.212;9.198;2022-08-25T15:01:31;3.80;;;3.50;;
8131;SDS011;4107;49.212;9.198;2022-08-25T15:04:00;4.60;;;3.55;;
8131;SDS011;4107;49.212;9.198;2022-08-25T15:06:27;4.25;;;3.50;;
8131;SDS011;4107;49.212;9.198;2022-08-25T15:08:53;3.78;;;3.30;;
8131;SDS011;4107;49.212;9.198;2022-08-25T15:11:41;3.85;;;3.45;;
8131;SDS011;4107;49.212;9.198;2022-08-25T15:14:12;3.78;;;3.47;;
8131;SDS011;4107;49.212;9.198;2022-08-25T15:16:44;4.05;;;3.40;;
8131;SDS011;4107;49.212;9.198;2022-08-25T15:19:12;3.78;;;3.47;;
8131;SDS011;4107;49.212;9.198;2022-08-25T15:21:40;5.28;;;3.05;;
8131;SDS011;4107;49.212;9.198;2022-08-25T15:24:07;3.88;;;3.58;;
8131;SDS011;4107;49.212;9.198;2022-08-25T15:26:34;3.72;;;3.38;;
8131;SDS011;4107;49.212;9.198;2022-08-25T15:29:06;3.58;;;3.20;;
8131;SDS011;4107;49.212;9.198;2022-08-25T15:31:32;3.65;;;3.35;;
8131;SDS011;4107;49.212;9.198;2022-08-25T15:33:57;3.72;;;3.35;;
8131;SDS011;4107;49.212;9.198;2022-08-25T15:36:23;3.53;;;3.22;;
8131;SDS011;4107;49.212;9.198;2022-08-25T15:38:50;3.55;;;3.25;;
8131;SDS011;4107;49.212;9.198;2022-08-25T15:41:16;3.65;;;3.35;;
8131;SDS011;4107;49.212;9.198;2022-08-25T15:43:42;3.97;;;3.25;;
8131;SDS011;4107;49.212;9.198;2022-08-25T15:46:08;3.42;;;3.13;;
8131;SDS011;4107;49.212;9.198;2022-08-25T15:48:38;3.85;;;3.55;;
8131;SDS011;4107;49.212;9.198;2022-08-25T15:51:03;3.90;;;3.50;;
8131;SDS011;4107;49.212;9.198;2022-08-25T15:53:29;3.55;;;3.25;;
8131;SDS011;4107;49.212;9.198;2022-08-25T15:55:55;4.00;;;3.70;;
8131;SDS011;4107;49.212;9.198;2022-08-25T15:58:24;3.70;;;3.35;;
8131;SDS011;4107;49.212;9.198;2022-08-25T16:00:50;3.50;;;3.20;;
8131;SDS011;4107;49.212;9.198;2022-08-25T16:03:15;3.50;;;3.20;;
8131;SDS011;4107;49.212;9.198;2022-08-25T16:05:42;4.00;;;3.35;;
8131;SDS011;4107;49.212;9.198;2022-08-25T16:08:09;3.97;;;3.58;;
8131;SDS011;4107;49.212;9.198;2022-08-25T16:10:35;3.67;;;3.38;;
8131;SDS011;4107;49.212;9.198;2022-08-25T16:13:03;3.75;;;3.45;;
8131;SDS011;4107;49.212;9.198;2022-08-25T16:15:29;3.28;;;2.97;;
8131;SDS011;4107;49.212;9.198;2022-08-25T16:17:57;3.42;;;3.05;;
8131;SDS011;4107;49.212;9.198;2022-08-25T16:20:24;3.67;;;3.35;;
8131;SDS011;4107;49.212;9.198;2022-08-25T16:22:50;3.80;;;3.50;;
8131;SDS011;4107;49.212;9.198;2022-08-25T16:25:15;4.63;;;3.40;;
8131;SDS011;4107;49.212;9.198;2022-08-25T16:27:41;3.80;;;3.40;;
8131;SDS011;4107;49.212;9.198;2022-08-25T16:30:07;3.80;;;3.30;;
8131;SDS011;4107;49.212;9.198;2022-08-25T16:32:36;3.45;;;3.15;;
8131;SDS011;4107;49.212;9.198;2022-08-25T16:35:03;3.55;;;3.25;;
8131;SDS011;4107;49.212;9.198;2022-08-25T16:37:31;3.40;;;3.10;;
8131;SDS011;4107;49.212;9.198;2022-08-25T16:39:57;3.50;;;3.20;;
8131;SDS011;4107;49.212;9.198;2022-08-25T16:42:23;4.13;;;3.65;;
8131;SDS011;4107;49.212;9.198;2022-08-25T16:44:50;3.78;;;3.42;;
8131;SDS011;4107;49.212;9.198;2022-08-25T16:47:15;3.55;;;3.25;;
8131;SDS011;4107;49.212;9.198;2022-08-25T16:49:41;3.97;;;3.53;;
8131;SDS011;4107;49.212;9.198;2022-08-25T16:52:07;3.50;;;3.20;;
8131;SDS011;4107;49.212;9.198;2022-08-25T16:54:51;4.15;;;3.20;;
8131;SDS011;4107;49.212;9.198;2022-08-25T16:57:35;5.38;;;3.50;;
8131;SDS011;4107;49.212;9.198;2022-08-25T17:00:02;3.67;;;3.33;;
8131;SDS011;4107;49.212;9.198;2022-08-25T17:02:30;3.65;;;3.35;;
8131;SDS011;4107;49.212;9.198;2022-08-25T17:04:55;4.05;;;3.55;;
8131;SDS011;4107;49.212;9.198;2022-08-25T17:07:21;4.55;;;3.20;;
8131;SDS011;4107;49.212;9.198;2022-08-25T17:09:47;5.90;;;3.13;;
8131;SDS011;4107;49.212;9.198;2022-08-25T17:12:12;3.90;;;3.30;;
8131;SDS011;4107;49.212;9.198;2022-08-25T17:14:38;3.97;;;3.40;;
8131;SDS011;4107;49.212;9.198;2022-08-25T17:17:04;4.05;;;2.95;;
8131;SDS011;4107;49.212;9.198;2022-08-25T17:19:30;3.95;;;3.53;;
8131;SDS011;4107;49.212;9.198;2022-08-25T17:21:55;3.70;;;3.33;;
8131;SDS011;4107;49.212;9.198;2022-08-25T17:24:22;4.35;;;3.20;;
8131;SDS011;4107;49.212;9.198;2022-08-25T17:26:48;4.07;;;3.20;;
8131;SDS011;4107;49.212;9.198;2022-08-25T17:29:15;5.40;;;3.17;;
8131;SDS011;4107;49.212;9.198;2022-08-25T17:31:41;4.30;;;3.50;;
8131;SDS011;4107;49.212;9.198;2022-08-25T17:34:09;6.57;;;3.80;;
8131;SDS011;4107;49.212;9.198;2022-08-25T17:36:38;3.72;;;3.30;;
8131;SDS011;4107;49.212;9.198;2022-08-25T17:39:04;3.92;;;3.63;;
8131;SDS011;4107;49.212;9.198;2022-08-25T17:41:32;3.55;;;3.25;;